This is the latest recevied weather packets stored in our database for station/object KE9DBJ-13. If no packets are shown the sender has not sent any weather packets the latest 10 day(s).
| Time | Temp. | Humidity | Pressure | Rain* | Wind** | Luminosity | Snow |
|---|---|---|---|---|---|---|---|
| 1777909202 | 22.22° C | 53% | 1008.2 hPa | 0 mm | - | - | - |
| 1777908602 | 22.22° C | 52% | 1008.1 hPa | 0 mm | - | - | - |
| 1777908002 | 22.22° C | 54% | 1008.1 hPa | 0 mm | - | - | - |
| 1777907402 | 21.67° C | 56% | 1008.3 hPa | 0 mm | - | - | - |
| 1777906802 | 21.67° C | 57% | 1008.2 hPa | 0 mm | - | - | - |
| 1777906202 | 20° C | 61% | 1008.3 hPa | 0 mm | - | - | - |
| 1777905603 | 18.89° C | 63% | 1008.6 hPa | 0 mm | - | - | - |
| 1777905003 | 18.89° C | 64% | 1008.4 hPa | 0 mm | - | - | - |
| 1777904403 | 17.78° C | 70% | 1008.4 hPa | 0 mm | - | - | - |
| 1777903803 | 17.22° C | 69% | 1008.6 hPa | 0 mm | - | - | - |
| 1777903203 | 18.33° C | 63% | 1008.4 hPa | 0 mm | - | - | - |
| 1777902603 | 16.67° C | 68% | 1008.5 hPa | 0 mm | - | - | - |
| 1777902003 | 16.11° C | 67% | 1008.5 hPa | 0 mm | - | - | - |
| 1777901402 | 15.56° C | 67% | 1008.7 hPa | 0 mm | - | - | - |
| 1777900802 | 15° C | 68% | 1008.8 hPa | 0 mm | - | - | - |
| 1777900202 | 14.44° C | 70% | 1008.8 hPa | 0 mm | - | - | - |
| 1777899602 | 13.89° C | 72% | 1009.2 hPa | 0 mm | - | - | - |
| 1777899002 | 13.33° C | 74% | 1009.7 hPa | 0 mm | - | - | - |
| 1777898402 | 12.78° C | 76% | 1009.4 hPa | 0 mm | - | - | - |
| 1777897802 | 12.22° C | 76% | 1009.2 hPa | 0 mm | - | - | - |
| 1777897202 | 12.22° C | 74% | 1009.2 hPa | 0 mm | - | - | - |
| 1777896602 | 12.22° C | 77% | 1009.8 hPa | 0 mm | - | - | - |
| 1777896003 | 11.67° C | 78% | 1009.8 hPa | 0 mm | - | - | - |
| 1777895403 | 11.67° C | 77% | 1009.8 hPa | 0 mm | - | - | - |
| 1777894803 | 11.67° C | 78% | 1009.8 hPa | 0 mm | - | - | - |
* Rain latest hour (hover to see other rain measurements)
** Current wind speed in m/s (hover to see current wind gust speed)